createdAt,value
2022-10-12T00:01:53.596Z,76.91
2022-10-12T00:03:57.342Z,77.32
2022-10-12T00:06:06.680Z,78.51
2022-10-12T00:08:10.656Z,77.19
2022-10-12T00:10:14.082Z,76.97
2022-10-12T00:12:17.898Z,77.72
2022-10-12T00:14:21.766Z,77.55
2022-10-12T00:16:26.910Z,78.30
2022-10-12T00:18:31.790Z,78.21
2022-10-12T00:20:35.823Z,79.15
2022-10-12T00:22:39.399Z,80.44
2022-10-12T00:24:43.145Z,78.27
2022-10-12T00:26:46.775Z,78.89
2022-10-12T00:28:50.835Z,78.81
2022-10-12T00:30:54.200Z,80.03
2022-10-12T00:32:58.639Z,79.45
2022-10-12T00:35:02.290Z,79.92
2022-10-12T00:37:05.921Z,80.87
2022-10-12T00:39:09.831Z,81.42
2022-10-12T00:41:14.207Z,82.14
2022-10-12T00:43:31.154Z,81.75
2022-10-12T00:45:34.974Z,82.01
2022-10-12T00:47:40.978Z,82.74
2022-10-12T00:49:47.636Z,82.55
2022-10-12T00:51:58.020Z,83.88
2022-10-12T00:54:04.823Z,83.82
2022-10-12T00:56:12.725Z,84.14
2022-10-12T00:58:19.134Z,83.52
2022-10-12T01:00:23.578Z,84.51
2022-10-12T01:02:28.844Z,85.35
2022-10-12T01:04:34.135Z,85.46
2022-10-12T01:06:38.113Z,85.15
2022-10-12T01:08:44.663Z,85.67
2022-10-12T01:10:48.531Z,87.69
2022-10-12T01:12:51.937Z,87.04
2022-10-12T01:14:55.690Z,86.94
2022-10-12T01:17:09.141Z,87.70
2022-10-12T01:19:31.004Z,87.27
2022-10-12T01:21:39.231Z,87.15
2022-10-12T01:24:01.638Z,87.24
2022-10-12T01:26:05.188Z,87.48
2022-10-12T01:28:19.778Z,86.92
2022-10-12T01:30:24.558Z,87.51
2022-10-12T01:32:43.115Z,88.97
2022-10-12T01:34:49.842Z,88.38
2022-10-12T01:37:09.238Z,88.53
2022-10-12T01:39:31.237Z,87.28
2022-10-12T01:41:34.822Z,86.53
2022-10-12T01:43:39.878Z,87.09
2022-10-12T01:45:43.393Z,85.72
2022-10-12T01:47:53.695Z,86.01
2022-10-12T01:49:57.263Z,85.16
2022-10-12T01:52:01.435Z,85.45
2022-10-12T01:54:26.107Z,85.87
2022-10-12T01:56:44.101Z,86.42
2022-10-12T01:58:50.508Z,86.38
2022-10-12T02:00:59.811Z,85.01
2022-10-12T02:03:12.852Z,85.52
2022-10-12T02:05:16.642Z,84.72
2022-10-12T02:07:26.809Z,85.02
2022-10-12T02:09:40.665Z,87.28
2022-10-12T02:11:45.271Z,85.82
2022-10-12T02:13:59.211Z,85.61
2022-10-12T02:16:04.854Z,86.06
2022-10-12T02:18:09.713Z,86.72
2022-10-12T02:20:15.725Z,87.16
2022-10-12T02:22:19.998Z,86.85
2022-10-12T02:24:25.174Z,87.27
2022-10-12T02:26:29.754Z,87.43
2022-10-12T02:28:36.163Z,87.42
2022-10-12T02:30:43.295Z,87.41
2022-10-12T02:33:01.215Z,87.89
2022-10-12T02:35:15.967Z,87.78
2022-10-12T02:37:28.766Z,88.69
2022-10-12T02:39:35.614Z,88.07
2022-10-12T02:41:42.997Z,88.74
2022-10-12T02:43:52.956Z,88.53
2022-10-12T02:45:58.238Z,88.88
2022-10-12T02:48:05.382Z,89.92
2022-10-12T02:50:09.981Z,90.24
2022-10-12T02:52:13.440Z,91.27
2022-10-12T02:54:17.498Z,91.22
2022-10-12T02:56:21.184Z,92.45
2022-10-12T02:58:25.164Z,93.06
2022-10-12T03:00:29.471Z,92.34
2022-10-12T03:02:33.318Z,93.60
2022-10-12T03:04:37.001Z,93.82
2022-10-12T03:06:40.768Z,93.81
2022-10-12T03:08:44.505Z,95.10
2022-10-12T03:10:48.177Z,94.61
2022-10-12T03:12:55.522Z,95.14
2022-10-12T03:14:59.362Z,95.75
2022-10-12T03:17:03.367Z,95.95
2022-10-12T03:19:07.606Z,95.66
2022-10-12T03:21:11.884Z,96.00
2022-10-12T03:23:15.820Z,96.53
2022-10-12T03:25:19.646Z,96.51
2022-10-12T03:27:23.259Z,96.70
2022-10-12T03:29:26.888Z,97.35
2022-10-12T03:31:31.718Z,97.56
2022-10-12T03:33:35.425Z,97.46
2022-10-12T03:35:39.162Z,98.55
2022-10-12T03:37:42.471Z,98.75
2022-10-12T03:39:45.891Z,99.16
2022-10-12T03:41:49.575Z,100.00
2022-10-12T03:43:53.019Z,100.00
2022-10-12T03:45:56.437Z,100.00
2022-10-12T03:48:04.479Z,100.00
2022-10-12T03:50:08.687Z,100.00
2022-10-12T03:52:12.445Z,100.00
2022-10-12T03:54:16.238Z,100.00
2022-10-12T03:56:19.767Z,100.00
2022-10-12T03:58:23.432Z,100.00
2022-10-12T04:00:30.762Z,100.00
2022-10-12T04:02:34.794Z,100.00
2022-10-12T04:04:38.444Z,100.00
2022-10-12T04:06:42.215Z,100.00
2022-10-12T04:08:49.923Z,100.00
2022-10-12T04:10:54.810Z,100.00
2022-10-12T04:12:58.966Z,100.00
2022-10-12T04:15:02.701Z,100.00
2022-10-12T04:17:06.778Z,100.00
2022-10-12T04:19:13.703Z,100.00
2022-10-12T04:21:18.141Z,100.00
2022-10-12T04:23:21.785Z,100.00
2022-10-12T04:25:29.968Z,100.00
2022-10-12T04:27:34.274Z,100.00
2022-10-12T04:29:38.402Z,100.00
2022-10-12T04:31:42.319Z,100.00
2022-10-12T04:33:46.290Z,100.00
2022-10-12T04:35:49.818Z,100.00
2022-10-12T04:37:53.629Z,100.00
2022-10-12T04:39:57.416Z,100.00
2022-10-12T04:42:01.023Z,100.00
2022-10-12T04:44:04.662Z,100.00
2022-10-12T04:46:10.879Z,100.00
2022-10-12T04:48:14.642Z,100.00
2022-10-12T04:50:18.431Z,100.00
2022-10-12T04:52:22.007Z,100.00
2022-10-12T04:54:25.858Z,100.00
2022-10-12T04:56:29.375Z,100.00
2022-10-12T04:58:33.624Z,100.00
2022-10-12T05:00:37.062Z,100.00
2022-10-12T05:02:40.488Z,100.00
2022-10-12T05:04:43.948Z,100.00
2022-10-12T05:06:47.607Z,100.00
2022-10-12T05:08:51.139Z,100.00
2022-10-12T05:10:54.547Z,100.00
2022-10-12T05:12:58.072Z,100.00
2022-10-12T05:15:01.984Z,100.00
2022-10-12T05:17:05.403Z,100.00
2022-10-12T05:19:09.008Z,100.00
2022-10-12T05:21:12.643Z,100.00
2022-10-12T05:23:16.603Z,100.00
2022-10-12T05:25:22.755Z,100.00
2022-10-12T05:27:26.299Z,100.00
2022-10-12T05:29:29.925Z,100.00
2022-10-12T05:31:33.340Z,100.00
2022-10-12T05:33:36.785Z,100.00
2022-10-12T05:35:43.931Z,100.00
2022-10-12T05:37:54.291Z,100.00
2022-10-12T05:39:58.042Z,100.00
2022-10-12T05:42:01.432Z,100.00
2022-10-12T05:44:05.042Z,100.00
2022-10-12T05:46:13.554Z,100.00
2022-10-12T05:48:17.923Z,100.00
2022-10-12T05:50:22.234Z,100.00
2022-10-12T05:52:25.851Z,100.00
2022-10-12T05:54:29.674Z,100.00
2022-10-12T05:56:33.282Z,100.00
2022-10-12T05:58:36.869Z,100.00
2022-10-12T06:00:41.110Z,100.00
2022-10-12T06:02:44.932Z,100.00
2022-10-12T06:04:48.350Z,100.00
2022-10-12T06:06:51.785Z,100.00
2022-10-12T06:09:01.863Z,100.00
2022-10-12T06:11:05.675Z,100.00
2022-10-12T06:13:09.760Z,100.00
2022-10-12T06:15:13.715Z,100.00
2022-10-12T06:17:17.603Z,100.00
2022-10-12T06:19:21.048Z,100.00
2022-10-12T06:21:39.746Z,100.00
2022-10-12T06:23:43.173Z,100.00
2022-10-12T06:25:51.178Z,100.00
2022-10-12T06:27:55.014Z,100.00
2022-10-12T06:29:58.463Z,100.00
2022-10-12T06:32:02.113Z,100.00
2022-10-12T06:34:05.576Z,100.00
2022-10-12T06:36:09.025Z,100.00
2022-10-12T06:38:12.599Z,100.00
2022-10-12T06:40:16.036Z,100.00
2022-10-12T06:42:19.414Z,100.00
2022-10-12T06:44:25.875Z,100.00
2022-10-12T06:46:29.395Z,100.00
2022-10-12T06:48:32.879Z,100.00
2022-10-12T06:50:36.560Z,100.00
2022-10-12T06:52:40.332Z,100.00
2022-10-12T06:54:44.004Z,100.00
2022-10-12T06:56:47.474Z,100.00
2022-10-12T06:58:55.776Z,100.00
2022-10-12T07:00:59.416Z,100.00
2022-10-12T07:03:03.262Z,100.00
2022-10-12T07:05:07.466Z,100.00
2022-10-12T07:07:10.997Z,100.00
2022-10-12T07:09:14.415Z,100.00
2022-10-12T07:11:17.875Z,100.00
2022-10-12T07:13:21.351Z,100.00
2022-10-12T07:15:25.101Z,100.00
2022-10-12T07:17:28.393Z,100.00
2022-10-12T07:19:31.867Z,100.00
2022-10-12T07:21:35.406Z,100.00
2022-10-12T07:23:43.618Z,100.00
2022-10-12T07:25:50.877Z,100.00
2022-10-12T07:27:54.359Z,100.00
2022-10-12T07:29:58.237Z,100.00
2022-10-12T07:32:02.174Z,100.00
2022-10-12T07:34:05.397Z,100.00
2022-10-12T07:36:21.193Z,100.00
2022-10-12T07:38:25.429Z,100.00
2022-10-12T07:40:29.180Z,100.00
2022-10-12T07:42:32.579Z,100.00
2022-10-12T07:44:36.275Z,100.00
2022-10-12T07:46:40.723Z,100.00
2022-10-12T07:48:50.216Z,100.00
2022-10-12T07:50:54.603Z,100.00
2022-10-12T07:52:59.204Z,100.00
2022-10-12T07:55:03.669Z,100.00
2022-10-12T07:57:07.163Z,100.00
2022-10-12T07:59:10.650Z,100.00
2022-10-12T08:01:14.234Z,100.00
2022-10-12T08:03:17.929Z,100.00
2022-10-12T08:05:22.331Z,100.00
2022-10-12T08:07:26.029Z,100.00
2022-10-12T08:09:29.889Z,100.00
2022-10-12T08:11:33.927Z,100.00
2022-10-12T08:13:38.081Z,100.00
2022-10-12T08:15:41.558Z,100.00
2022-10-12T08:17:45.474Z,100.00
2022-10-12T08:19:49.726Z,100.00
2022-10-12T08:21:53.888Z,100.00
2022-10-12T08:23:57.594Z,100.00
2022-10-12T08:26:01.121Z,100.00
2022-10-12T08:28:05.002Z,100.00
2022-10-12T08:30:08.678Z,100.00
2022-10-12T08:32:12.283Z,100.00
2022-10-12T08:34:15.602Z,100.00
2022-10-12T08:36:19.267Z,100.00
2022-10-12T08:38:22.967Z,100.00
2022-10-12T08:40:34.137Z,100.00
2022-10-12T08:42:45.480Z,100.00
2022-10-12T08:44:52.253Z,100.00
2022-10-12T08:47:01.739Z,100.00
2022-10-12T08:49:13.859Z,100.00
2022-10-12T08:51:20.391Z,100.00
2022-10-12T08:53:30.314Z,100.00
2022-10-12T08:55:36.434Z,100.00
2022-10-12T08:57:40.021Z,100.00
2022-10-12T08:59:43.793Z,100.00
2022-10-12T09:01:53.580Z,100.00
2022-10-12T09:03:57.281Z,100.00
2022-10-12T09:06:20.221Z,100.00
2022-10-12T09:08:42.582Z,100.00
2022-10-12T09:10:48.026Z,100.00
2022-10-12T09:13:07.492Z,100.00
2022-10-12T09:15:14.815Z,100.00
2022-10-12T09:17:39.355Z,100.00
2022-10-12T09:19:43.937Z,100.00
2022-10-12T09:21:48.984Z,100.00
2022-10-12T09:23:53.680Z,100.00
2022-10-12T09:26:12.923Z,100.00
2022-10-12T09:28:31.125Z,100.00
2022-10-12T09:30:39.294Z,100.00
2022-10-12T09:32:45.526Z,100.00
2022-10-12T09:34:50.353Z,100.00
2022-10-12T09:36:54.761Z,100.00
2022-10-12T09:38:59.869Z,100.00
2022-10-12T09:41:03.254Z,100.00
2022-10-12T09:43:07.079Z,100.00
2022-10-12T09:45:16.037Z,100.00
2022-10-12T09:47:24.478Z,100.00
2022-10-12T09:49:47.287Z,100.00
2022-10-12T09:52:00.751Z,100.00
2022-10-12T09:54:05.154Z,100.00
2022-10-12T09:56:24.040Z,100.00
2022-10-12T09:58:28.558Z,100.00
2022-10-12T10:00:36.859Z,100.00
2022-10-12T10:02:50.505Z,100.00
2022-10-12T10:04:54.993Z,100.00
2022-10-12T10:07:13.119Z,100.00
2022-10-12T10:09:30.861Z,100.00
2022-10-12T10:11:34.668Z,100.00
2022-10-12T10:13:39.416Z,100.00
2022-10-12T10:15:44.792Z,100.00
2022-10-12T10:17:51.139Z,100.00
2022-10-12T10:19:56.603Z,100.00
2022-10-12T10:22:06.188Z,100.00
2022-10-12T10:24:24.296Z,100.00
2022-10-12T10:26:29.401Z,100.00
2022-10-12T10:28:34.322Z,100.00
2022-10-12T10:30:40.822Z,100.00
2022-10-12T10:32:45.413Z,100.00
2022-10-12T10:34:49.110Z,100.00
2022-10-12T10:36:54.475Z,100.00
2022-10-12T10:39:07.278Z,100.00
2022-10-12T10:41:19.097Z,100.00
2022-10-12T10:43:26.679Z,100.00
2022-10-12T10:45:53.557Z,100.00
2022-10-12T10:48:02.372Z,100.00
2022-10-12T10:50:25.701Z,100.00
2022-10-12T10:52:34.649Z,100.00
2022-10-12T10:54:42.158Z,100.00
2022-10-12T10:56:47.817Z,100.00
2022-10-12T10:59:00.657Z,100.00
2022-10-12T11:01:14.864Z,100.00
2022-10-12T11:03:22.632Z,100.00
2022-10-12T11:05:58.861Z,100.00
2022-10-12T11:08:14.476Z,100.00
2022-10-12T11:10:34.291Z,100.00
2022-10-12T11:12:42.255Z,100.00
2022-10-12T11:14:49.657Z,100.00
2022-10-12T11:16:59.804Z,100.00
2022-10-12T11:19:12.655Z,100.00
2022-10-12T11:21:21.318Z,100.00
2022-10-12T11:23:36.816Z,100.00
2022-10-12T11:25:52.154Z,100.00
2022-10-12T11:27:55.948Z,100.00
2022-10-12T11:30:09.160Z,100.00
2022-10-12T11:32:24.218Z,100.00
2022-10-12T11:34:29.803Z,100.00
2022-10-12T11:36:34.505Z,100.00
2022-10-12T11:38:48.685Z,100.00
2022-10-12T11:41:09.339Z,100.00
2022-10-12T11:43:29.951Z,100.00
2022-10-12T11:45:38.137Z,100.00
2022-10-12T11:47:47.123Z,100.00
2022-10-12T11:50:08.971Z,100.00
2022-10-12T11:52:13.407Z,100.00
2022-10-12T11:54:28.504Z,100.00
2022-10-12T11:56:34.976Z,100.00
2022-10-12T11:59:01.090Z,100.00
2022-10-12T12:01:30.480Z,100.00
2022-10-12T12:03:42.778Z,100.00
2022-10-12T12:05:46.286Z,100.00
2022-10-12T12:07:54.973Z,100.00
2022-10-12T12:09:58.653Z,100.00
2022-10-12T12:12:20.155Z,100.00
2022-10-12T12:14:26.420Z,100.00
2022-10-12T12:16:36.783Z,100.00
2022-10-12T12:18:59.038Z,100.00
2022-10-12T12:21:02.627Z,100.00
2022-10-12T12:23:06.307Z,100.00
2022-10-12T12:25:11.819Z,100.00
2022-10-12T12:27:50.428Z,100.00
2022-10-12T12:29:54.295Z,100.00
2022-10-12T12:32:00.159Z,100.00
2022-10-12T12:34:06.847Z,100.00
2022-10-12T12:36:11.944Z,100.00
2022-10-12T12:38:15.305Z,100.00
2022-10-12T12:40:22.979Z,100.00
2022-10-12T12:42:28.793Z,100.00
2022-10-12T12:44:35.229Z,100.00
2022-10-12T12:47:43.957Z,100.00
2022-10-12T12:49:46.490Z,100.00
2022-10-12T12:51:53.741Z,100.00
2022-10-12T12:53:57.188Z,100.00
2022-10-12T12:56:06.192Z,100.00
2022-10-12T12:58:28.128Z,100.00
2022-10-12T13:00:39.102Z,100.00
2022-10-12T13:03:09.529Z,100.00
2022-10-12T13:05:31.551Z,100.00
2022-10-12T13:07:47.690Z,100.00
2022-10-12T13:10:06.648Z,100.00
2022-10-12T13:12:26.629Z,100.00
2022-10-12T13:14:52.132Z,100.00
2022-10-12T13:19:30.686Z,100.00
2022-10-12T13:21:38.931Z,100.00
2022-10-12T13:23:43.077Z,100.00
2022-10-12T13:25:58.918Z,100.00
2022-10-12T13:28:04.790Z,100.00
2022-10-12T13:30:28.563Z,100.00
2022-10-12T13:32:32.470Z,100.00
2022-10-12T13:34:40.347Z,100.00
2022-10-12T13:36:57.934Z,100.00
2022-10-12T13:39:08.250Z,100.00
2022-10-12T13:41:21.807Z,100.00
2022-10-12T13:43:25.526Z,100.00
2022-10-12T13:45:29.807Z,100.00
2022-10-12T13:47:35.062Z,100.00
2022-10-12T13:49:45.324Z,100.00
2022-10-12T13:51:51.673Z,100.00
2022-10-12T13:53:55.376Z,100.00
2022-10-12T13:56:15.096Z,100.00
2022-10-12T13:58:27.691Z,100.00
2022-10-12T14:00:31.334Z,100.00
2022-10-12T14:02:36.872Z,100.00
2022-10-12T14:04:44.262Z,100.00
2022-10-12T14:06:56.335Z,100.00
2022-10-12T14:09:03.400Z,100.00
2022-10-12T14:11:07.123Z,100.00
2022-10-12T14:13:16.004Z,100.00
2022-10-12T14:16:07.778Z,100.00
2022-10-12T14:18:29.733Z,100.00
2022-10-12T14:20:40.822Z,100.00
2022-10-12T14:22:49.749Z,100.00
2022-10-12T14:25:08.643Z,100.00
2022-10-12T14:27:22.610Z,100.00
2022-10-12T14:29:38.726Z,100.00
2022-10-12T14:31:53.996Z,100.00
2022-10-12T14:34:17.392Z,100.00
2022-10-12T14:36:26.863Z,100.00
2022-10-12T14:38:37.419Z,100.00
2022-10-12T14:40:41.165Z,100.00
2022-10-12T14:42:54.726Z,100.00
2022-10-12T14:44:58.369Z,100.00
2022-10-12T14:47:09.008Z,100.00
2022-10-12T14:49:23.104Z,100.00
2022-10-12T14:51:26.734Z,100.00
2022-10-12T14:53:30.586Z,100.00
2022-10-12T14:55:35.488Z,100.00
2022-10-12T14:57:39.407Z,100.00
2022-10-12T14:59:43.177Z,100.00
2022-10-12T15:01:51.267Z,100.00
2022-10-12T15:03:55.085Z,100.00
2022-10-12T15:05:59.045Z,100.00
2022-10-12T15:08:08.194Z,100.00
2022-10-12T15:10:11.815Z,100.00
2022-10-12T15:12:18.070Z,100.00
2022-10-12T15:14:21.467Z,100.00
2022-10-12T15:16:26.195Z,100.00
2022-10-12T15:18:30.100Z,100.00
2022-10-12T15:20:34.369Z,100.00
2022-10-12T15:22:38.100Z,100.00
2022-10-12T15:24:42.229Z,100.00
2022-10-12T15:26:48.710Z,100.00
2022-10-12T15:28:52.921Z,99.58
2022-10-12T15:33:25.029Z,95.94
2022-10-12T15:35:29.974Z,96.22
2022-10-12T15:37:33.867Z,94.64
2022-10-12T15:39:37.907Z,94.08
2022-10-12T15:41:41.529Z,91.36
2022-10-12T15:43:45.237Z,91.51
2022-10-12T15:45:49.270Z,91.15
2022-10-12T15:47:53.905Z,92.79
2022-10-12T15:49:57.560Z,93.36
2022-10-12T15:52:01.591Z,92.92
2022-10-12T15:54:05.041Z,93.73
2022-10-12T15:56:13.335Z,91.61
2022-10-12T15:58:17.052Z,91.75
2022-10-12T16:00:21.906Z,90.44
2022-10-12T16:02:25.567Z,90.07
2022-10-12T16:04:28.986Z,88.77
2022-10-12T16:06:33.094Z,89.03
2022-10-12T16:08:37.126Z,88.13
2022-10-12T16:10:41.667Z,88.90
2022-10-12T16:12:46.436Z,87.17
2022-10-12T16:14:49.976Z,87.06
2022-10-12T16:16:53.451Z,86.26
2022-10-12T16:18:56.868Z,85.98
2022-10-12T16:21:00.524Z,85.00
2022-10-12T16:23:05.215Z,85.33
2022-10-12T16:25:09.942Z,84.83
2022-10-12T16:27:16.440Z,84.42
2022-10-12T16:29:20.554Z,83.88
2022-10-12T16:31:23.964Z,84.10
2022-10-12T16:33:27.823Z,84.38
2022-10-12T16:35:31.346Z,83.46
2022-10-12T16:37:35.490Z,82.58
2022-10-12T16:39:39.345Z,82.19
2022-10-12T16:41:43.210Z,83.20
2022-10-12T16:43:46.601Z,83.36
2022-10-12T16:45:56.460Z,83.47
2022-10-12T16:48:00.001Z,83.99
2022-10-12T16:50:03.616Z,82.19
2022-10-12T16:52:07.980Z,82.37
2022-10-12T16:54:11.678Z,82.46
2022-10-12T16:56:15.258Z,81.30
2022-10-12T16:58:19.175Z,81.49
2022-10-12T17:00:25.943Z,80.41
2022-10-12T17:02:29.730Z,80.79
2022-10-12T17:04:33.200Z,79.95
2022-10-12T17:06:36.825Z,78.43
2022-10-12T17:08:40.648Z,78.77
2022-10-12T17:10:47.175Z,79.66
2022-10-12T17:12:51.283Z,80.35
2022-10-12T17:14:55.178Z,79.85
2022-10-12T17:16:59.455Z,79.39
2022-10-12T17:19:03.601Z,79.36
2022-10-12T17:21:07.889Z,79.24
2022-10-12T17:23:11.501Z,79.25
2022-10-12T17:25:15.269Z,79.55
2022-10-12T17:27:19.479Z,79.13
2022-10-12T17:29:25.482Z,78.61
2022-10-12T17:31:29.826Z,77.06
2022-10-12T17:33:33.468Z,77.05
2022-10-12T17:35:40.901Z,76.65
2022-10-12T17:37:44.561Z,75.69
2022-10-12T17:39:49.453Z,75.31
2022-10-12T17:41:53.688Z,73.59
2022-10-12T17:43:57.936Z,70.18
2022-10-12T17:46:02.069Z,70.58
2022-10-12T17:48:05.749Z,71.53
2022-10-12T17:50:09.456Z,69.47
2022-10-12T17:52:13.160Z,68.90
2022-10-12T17:54:20.518Z,71.00
2022-10-12T17:56:24.518Z,69.53
2022-10-12T17:58:28.636Z,68.60
2022-10-12T18:00:32.854Z,68.39
2022-10-12T18:02:36.490Z,65.55
2022-10-12T18:04:40.566Z,61.35
2022-10-12T18:06:45.111Z,51.36
2022-10-12T18:08:49.143Z,49.23
2022-10-12T18:10:53.683Z,46.09
2022-10-12T18:12:57.147Z,39.54
2022-10-12T18:15:01.005Z,43.54
2022-10-12T18:17:05.243Z,42.01
2022-10-12T18:19:10.777Z,45.95
2022-10-12T18:21:15.230Z,39.71
2022-10-12T18:23:18.875Z,34.70
2022-10-12T18:25:25.214Z,32.03
2022-10-12T18:27:28.882Z,34.61
2022-10-12T18:29:32.712Z,33.70
2022-10-12T18:31:36.063Z,32.83
2022-10-12T18:33:40.762Z,34.30
2022-10-12T18:35:44.436Z,35.88
2022-10-12T18:37:48.261Z,34.46
2022-10-12T18:39:52.246Z,33.54
2022-10-12T18:41:56.623Z,33.71
2022-10-12T18:44:01.556Z,35.90
2022-10-12T18:46:09.357Z,33.09
2022-10-12T18:48:13.522Z,33.57
2022-10-12T18:50:17.327Z,32.88
2022-10-12T18:52:21.976Z,32.09
2022-10-12T18:54:25.737Z,32.58
2022-10-12T18:56:30.552Z,31.39
2022-10-12T18:58:34.226Z,29.66
2022-10-12T19:00:37.957Z,29.90
2022-10-12T19:02:41.779Z,29.40
2022-10-12T19:04:45.555Z,28.54
2022-10-12T19:06:49.219Z,28.66
2022-10-12T19:08:53.558Z,30.33
2022-10-12T19:10:57.198Z,29.34
2022-10-12T19:13:01.550Z,29.66
2022-10-12T19:15:05.221Z,29.37
2022-10-12T19:17:08.742Z,29.97
2022-10-12T19:19:19.689Z,29.11
2022-10-12T19:21:24.872Z,28.26
2022-10-12T19:23:28.413Z,29.37
2022-10-12T19:25:32.234Z,29.39
2022-10-12T19:27:35.640Z,28.33
2022-10-12T19:29:42.397Z,29.63
2022-10-12T19:31:50.501Z,26.74
2022-10-12T19:33:59.128Z,27.69
2022-10-12T19:36:06.801Z,26.89
2022-10-12T19:38:10.755Z,26.39
2022-10-12T19:40:15.820Z,26.62
2022-10-12T19:42:19.649Z,26.83
2022-10-12T19:44:23.829Z,26.88
2022-10-12T19:46:28.541Z,26.42
2022-10-12T19:48:32.381Z,26.35
2022-10-12T19:50:36.760Z,26.42
2022-10-12T19:52:40.759Z,27.01
2022-10-12T19:54:44.666Z,27.25
2022-10-12T19:56:48.398Z,27.09
2022-10-12T19:58:52.729Z,26.56
2022-10-12T20:01:04.144Z,26.65
2022-10-12T20:03:07.772Z,26.81
2022-10-12T20:05:12.185Z,27.09
2022-10-12T20:07:15.505Z,27.63
2022-10-12T20:09:19.440Z,26.79
2022-10-12T20:11:24.955Z,26.94
2022-10-12T20:13:28.699Z,26.57
2022-10-12T20:15:32.921Z,26.36
2022-10-12T20:17:37.287Z,26.93
2022-10-12T20:19:40.716Z,26.64
2022-10-12T20:21:44.445Z,26.78
2022-10-12T20:23:48.161Z,27.65
2022-10-12T20:25:53.184Z,26.50
2022-10-12T20:27:56.482Z,26.62
2022-10-12T20:30:00.313Z,26.58
2022-10-12T20:32:03.972Z,27.13
2022-10-12T20:34:07.567Z,27.33
2022-10-12T20:36:16.614Z,27.08
2022-10-12T20:38:20.171Z,26.42
2022-10-12T20:40:23.921Z,26.20
2022-10-12T20:42:27.663Z,25.64
2022-10-12T20:44:31.464Z,25.66
2022-10-12T20:46:35.575Z,26.51
2022-10-12T20:48:41.044Z,25.03
2022-10-12T20:50:44.573Z,24.97
2022-10-12T20:52:49.239Z,24.87
2022-10-12T20:54:53.719Z,25.11
2022-10-12T20:56:57.811Z,25.02
2022-10-12T20:59:01.962Z,25.28
2022-10-12T21:01:06.626Z,24.23
2022-10-12T21:03:11.482Z,23.47
2022-10-12T21:05:15.085Z,23.82
2022-10-12T21:07:19.264Z,24.26
2022-10-12T21:09:22.960Z,23.80
2022-10-12T21:11:26.682Z,24.12
2022-10-12T21:13:34.957Z,23.45
2022-10-12T21:15:38.627Z,25.25
2022-10-12T21:17:45.077Z,23.45
2022-10-12T21:19:48.714Z,22.84
2022-10-12T21:21:53.021Z,22.86
2022-10-12T21:23:57.824Z,22.09
2022-10-12T21:26:10.121Z,22.04
2022-10-12T21:28:13.682Z,22.29
2022-10-12T21:30:17.478Z,22.16
2022-10-12T21:32:21.443Z,21.52
2022-10-12T21:34:25.056Z,22.03
2022-10-12T21:36:29.495Z,21.23
2022-10-12T21:38:32.836Z,21.08
2022-10-12T21:41:00.924Z,20.32
2022-10-12T21:43:08.231Z,20.64
2022-10-12T21:45:11.773Z,20.05
2022-10-12T21:47:18.217Z,19.50
2022-10-12T21:49:22.290Z,19.41
2022-10-12T21:51:27.348Z,18.76
2022-10-12T21:53:30.882Z,18.72
2022-10-12T21:55:35.172Z,18.83
2022-10-12T21:57:38.743Z,18.63
2022-10-12T21:59:42.274Z,18.27
2022-10-12T22:01:45.806Z,18.84
2022-10-12T22:03:51.389Z,17.93
2022-10-12T22:05:55.282Z,18.06
2022-10-12T22:07:59.143Z,18.09
2022-10-12T22:10:02.481Z,18.05
2022-10-12T22:12:06.268Z,18.15
2022-10-12T22:14:11.264Z,17.96
2022-10-12T22:16:17.183Z,17.97
2022-10-12T22:18:20.761Z,18.08
2022-10-12T22:20:24.839Z,18.05
2022-10-12T22:22:29.425Z,17.93
2022-10-12T22:24:33.248Z,17.82
2022-10-12T22:26:40.099Z,17.53
2022-10-12T22:28:44.830Z,17.26
2022-10-12T22:30:48.377Z,17.50
2022-10-12T22:32:51.903Z,17.51
2022-10-12T22:34:55.531Z,17.82
2022-10-12T22:36:59.292Z,17.40
2022-10-12T22:39:02.941Z,17.76
2022-10-12T22:41:11.183Z,17.79
2022-10-12T22:43:23.314Z,17.81
2022-10-12T22:45:28.259Z,17.70
2022-10-12T22:47:32.308Z,17.54
2022-10-12T22:49:37.737Z,17.95
2022-10-12T22:51:41.424Z,18.79
2022-10-12T22:53:45.321Z,18.94
2022-10-12T22:55:49.688Z,19.75
2022-10-12T22:57:53.778Z,19.49
2022-10-12T22:59:57.281Z,20.23
2022-10-12T23:02:00.905Z,20.57
2022-10-12T23:04:06.903Z,20.78
2022-10-12T23:06:15.176Z,21.63
2022-10-12T23:08:18.867Z,21.58
2022-10-12T23:10:23.240Z,21.02
2022-10-12T23:12:26.855Z,21.27
2022-10-12T23:14:32.418Z,21.20
2022-10-12T23:16:37.023Z,21.65
2022-10-12T23:18:41.589Z,22.84
2022-10-12T23:20:46.291Z,21.83
2022-10-12T23:22:50.454Z,21.88
2022-10-12T23:24:54.135Z,21.93
2022-10-12T23:26:58.090Z,21.51
2022-10-12T23:29:01.793Z,21.65
2022-10-12T23:31:06.410Z,21.87
2022-10-12T23:33:10.271Z,21.77
2022-10-12T23:35:14.023Z,22.00
2022-10-12T23:37:17.801Z,22.70
2022-10-12T23:39:23.515Z,22.13
2022-10-12T23:41:27.374Z,22.27
2022-10-12T23:43:31.424Z,22.16
2022-10-12T23:45:37.591Z,22.92
2022-10-12T23:47:40.953Z,24.22
2022-10-12T23:49:45.762Z,23.45
2022-10-12T23:51:49.476Z,23.43
2022-10-12T23:53:53.058Z,23.76
2022-10-12T23:55:56.618Z,25.32
2022-10-12T23:58:00.666Z,24.50
